Time;durP1;ratioP1;P1;durP2;ratioP2;P2;SDS_P1;SDS_P2;PMS_P1;PMS_P2;Temp;Humidity;BMP_temperature;BMP_pressure;BME280_temperature;BME280_humidity;BME280_pressure;Samples;Min_cycle;Max_cycle;Signal;HPM_P1;HPM_P2
2021/03/21 05:49:33;;;;;;;7.43;3.38;;;;;;;;;;6264434;22;20027;-80
2021/03/21 05:52:38;;;;;;;6.32;3.17;;;;;;;;;;6265452;22;20015;-80
2021/03/21 05:55:06;;;;;;;6.32;3.20;;;;;;;;;;6134149;23;20006;-81
2021/03/21 05:57:50;;;;;;;8.32;4.05;;;;;;;;;;6132343;23;20020;-80
2021/03/21 06:02:54;;;;;;;7.00;2.88;;;;;;;;;;5095230;28;20850;-82
2021/03/21 06:05:31;;;;;;;6.55;3.10;;;;;;;;;;5082455;28;20487;-81
2021/03/21 06:08:12;;;;;;;7.20;3.50;;;;;;;;;;5096693;28;20019;-82
2021/03/21 06:10:38;;;;;;;5.38;2.80;;;;;;;;;;5081394;28;20039;-81
2021/03/21 06:13:23;;;;;;;6.60;2.90;;;;;;;;;;5108363;28;20012;-82
2021/03/21 06:15:54;;;;;;;9.15;3.70;;;;;;;;;;5088587;28;20028;-81
2021/03/21 06:18:26;;;;;;;8.68;4.05;;;;;;;;;;5066489;28;20021;-82
2021/03/21 06:21:06;;;;;;;8.60;3.80;;;;;;;;;;5083722;28;20404;-81
2021/03/21 06:23:50;;;;;;;7.18;3.55;;;;;;;;;;5084336;28;20017;-81
2021/03/21 06:26:34;;;;;;;7.13;3.72;;;;;;;;;;5082702;28;20547;-81
2021/03/21 06:29:09;;;;;;;6.18;3.35;;;;;;;;;;5082360;28;20040;-81
2021/03/21 06:31:47;;;;;;;4.75;3.10;;;;;;;;;;5089073;28;20063;-81
2021/03/21 06:34:19;;;;;;;6.95;3.38;;;;;;;;;;5089077;28;20055;-81
2021/03/21 06:36:44;;;;;;;8.50;4.20;;;;;;;;;;5086682;28;20025;-80
2021/03/21 06:39:29;;;;;;;7.07;3.55;;;;;;;;;;5083950;28;20012;-80
2021/03/21 06:42:13;;;;;;;7.05;3.42;;;;;;;;;;5068910;28;20059;-80
2021/03/21 06:44:42;;;;;;;7.95;3.97;;;;;;;;;;5083676;28;20050;-81
2021/03/21 06:47:07;;;;;;;9.70;3.50;;;;;;;;;;5063793;28;20108;-81
2021/03/21 06:49:40;;;;;;;7.72;4.20;;;;;;;;;;5093904;28;20042;-81
2021/03/21 06:52:09;;;;;;;7.78;4.03;;;;;;;;;;5090182;28;20072;-81
2021/03/21 06:54:34;;;;;;;7.32;3.75;;;;;;;;;;5079733;28;20089;-81
2021/03/21 06:57:26;;;;;;;7.38;3.97;;;;;;;;;;5080316;28;20028;-81
2021/03/21 06:59:52;;;;;;;;;;;;;;;;;;5084513;28;20017;-81
2021/03/21 07:02:27;;;;;;;10.77;4.95;;;;;;;;;;5084953;28;19928;-81
2021/03/21 07:05:11;;;;;;;11.30;5.53;;;;;;;;;;5082392;28;20029;-81
2021/03/21 07:07:37;;;;;;;8.85;5.18;;;;;;;;;;5083916;28;20506;-81
2021/03/21 07:10:21;;;;;;;8.35;4.65;;;;;;;;;;5058254;28;20025;-81
2021/03/21 07:13:09;;;;;;;15.35;7.97;;;;;;;;;;5059781;28;20040;-81
2021/03/21 07:15:44;;;;;;;20.08;10.65;;;;;;;;;;5062809;28;20063;-81
2021/03/21 07:18:42;;;;;;;15.65;8.93;;;;;;;;;;5071578;28;20631;-81
2021/03/21 07:21:13;;;;;;;21.58;12.40;;;;;;;;;;5065766;28;20033;-81
2021/03/21 07:26:16;;;;;;;27.67;16.15;;;;;;;;;;5094742;27;20360;-81
2021/03/21 07:28:50;;;;;;;18.38;11.43;;;;;;;;;;5104213;28;20032;-81
2021/03/21 07:31:23;;;;;;;11.52;6.80;;;;;;;;;;5089779;28;20437;-81
2021/03/21 07:34:09;;;;;;;8.38;4.75;;;;;;;;;;5088522;28;20033;-81
2021/03/21 07:36:54;;;;;;;7.97;4.25;;;;;;;;;;5087783;28;20067;-81
2021/03/21 07:39:25;;;;;;;6.65;3.55;;;;;;;;;;5090266;28;20476;-81
2021/03/21 07:42:09;;;;;;;6.75;4.03;;;;;;;;;;5088019;28;20044;-81
2021/03/21 07:44:41;;;;;;;8.57;3.88;;;;;;;;;;5089964;28;20066;-81
2021/03/21 07:47:43;;;;;;;6.95;3.92;;;;;;;;;;5086920;28;20534;-81
2021/03/21 07:50:28;;;;;;;7.07;3.75;;;;;;;;;;5044902;28;20041;-81
2021/03/21 07:53:15;;;;;;;7.35;3.30;;;;;;;;;;5082544;28;20033;-82
2021/03/21 07:55:41;;;;;;;7.35;3.78;;;;;;;;;;5085536;28;20037;-81
2021/03/21 07:58:27;;;;;;;7.82;3.95;;;;;;;;;;5089165;28;20490;-81
2021/03/21 08:00:53;;;;;;;11.10;6.22;;;;;;;;;;5074273;28;20068;-81
2021/03/21 08:03:42;;;;;;;8.80;3.72;;;;;;;;;;5091949;28;20016;-81
2021/03/21 08:06:12;;;;;;;7.97;4.20;;;;;;;;;;5077827;28;20083;-81
2021/03/21 08:08:41;;;;;;;9.52;5.78;;;;;;;;;;5089043;28;20047;-81
2021/03/21 08:11:07;;;;;;;10.02;5.50;;;;;;;;;;5088208;28;20058;-81
2021/03/21 08:13:33;;;;;;;11.45;5.80;;;;;;;;;;5084052;28;20033;-81
2021/03/21 08:16:00;;;;;;;17.63;10.23;;;;;;;;;;5088454;28;20038;-81
2021/03/21 08:18:31;;;;;;;14.63;8.88;;;;;;;;;;5087986;28;20030;-81
2021/03/21 08:21:01;;;;;;;11.25;6.22;;;;;;;;;;5086001;28;20023;-81
2021/03/21 08:23:38;;;;;;;12.60;6.47;;;;;;;;;;5086649;28;20055;-81
2021/03/21 08:26:08;;;;;;;10.05;6.05;;;;;;;;;;5086012;28;20028;-81
2021/03/21 08:28:37;;;;;;;15.88;7.07;;;;;;;;;;5089472;28;20028;-81
2021/03/21 08:31:05;;;;;;;11.30;6.28;;;;;;;;;;5087068;28;20024;-81
2021/03/21 08:33:36;;;;;;;15.93;8.68;;;;;;;;;;5097406;28;20020;-81
2021/03/21 08:36:13;;;;;;;21.35;11.10;;;;;;;;;;5093383;28;20060;-81
2021/03/21 08:38:40;;;;;;;18.30;10.07;;;;;;;;;;5084996;28;20012;-81
2021/03/21 08:41:06;;;;;;;23.98;11.35;;;;;;;;;;5088489;28;20507;-81
2021/03/21 08:43:36;;;;;;;27.40;11.75;;;;;;;;;;5080621;28;20028;-81
2021/03/21 08:46:02;;;;;;;30.00;15.48;;;;;;;;;;5076687;28;20025;-82
2021/03/21 08:48:35;;;;;;;29.52;13.43;;;;;;;;;;5080536;28;20023;-81
2021/03/21 08:51:04;;;;;;;22.98;10.57;;;;;;;;;;5077292;28;20032;-81
2021/03/21 08:53:39;;;;;;;23.02;11.60;;;;;;;;;;5081847;28;20136;-81
2021/03/21 08:56:10;;;;;;;31.77;13.35;;;;;;;;;;5099308;28;20020;-82
2021/03/21 08:58:36;;;;;;;;;;;;;;;;;;5095850;28;20023;-81
2021/03/21 09:01:17;;;;;;;14.18;7.88;;;;;;;;;;5081240;28;19916;-81
2021/03/21 09:03:43;;;;;;;22.08;10.90;;;;;;;;;;5073303;28;20055;-81
2021/03/21 09:06:13;;;;;;;13.18;7.93;;;;;;;;;;5073869;28;20020;-81
2021/03/21 09:08:38;;;;;;;15.20;8.90;;;;;;;;;;5081870;28;20021;-81
2021/03/21 09:11:05;;;;;;;24.10;10.15;;;;;;;;;;5069577;28;20027;-79
2021/03/21 09:13:33;;;;;;;20.90;9.00;;;;;;;;;;5068751;28;20027;-81
2021/03/21 09:15:58;;;;;;;20.90;11.45;;;;;;;;;;5076387;28;20396;-81
2021/03/21 09:18:27;;;;;;;29.50;11.35;;;;;;;;;;5085613;28;20028;-81
2021/03/21 09:20:52;;;;;;;15.18;8.43;;;;;;;;;;5074288;28;20092;-81
2021/03/21 09:23:33;;;;;;;15.52;8.63;;;;;;;;;;5078730;28;20025;-81
2021/03/21 09:26:00;;;;;;;15.23;8.32;;;;;;;;;;5077489;28;20036;-81
2021/03/21 09:28:32;;;;;;;17.92;10.27;;;;;;;;;;5073065;28;20025;-81
2021/03/21 09:33:25;;;;;;;15.75;9.90;;;;;;;;;;5111580;27;20388;-81
2021/03/21 09:35:56;;;;;;;18.08;11.20;;;;;;;;;;5094695;28;20028;-82
2021/03/21 09:38:23;;;;;;;20.83;11.35;;;;;;;;;;5100109;28;20043;-81
2021/03/21 09:41:02;;;;;;;23.30;13.57;;;;;;;;;;5099773;28;20024;-81
2021/03/21 09:43:31;;;;;;;26.10;12.50;;;;;;;;;;5100844;28;20469;-82
2021/03/21 09:46:12;;;;;;;23.13;11.90;;;;;;;;;;5099130;28;20082;-82
2021/03/21 09:48:39;;;;;;;28.55;12.10;;;;;;;;;;5095423;28;20027;-82
2021/03/21 09:51:13;;;;;;;58.83;27.38;;;;;;;;;;5103449;28;20024;-82
2021/03/21 09:53:51;;;;;;;39.95;19.92;;;;;;;;;;5109239;28;20039;-82
2021/03/21 09:56:26;;;;;;;55.83;24.08;;;;;;;;;;5101906;28;20027;-81
2021/03/21 09:59:02;;;;;;;43.58;22.67;;;;;;;;;;5102180;28;20412;-81
2021/03/21 10:03:50;;;;;;;37.83;17.10;;;;;;;;;;5120459;27;20382;-81
2021/03/21 10:06:21;;;;;;;26.10;12.23;;;;;;;;;;5122388;28;20028;-81
2021/03/21 10:08:48;;;;;;;;;;;;;;;;;;5120271;27;20046;-81
2021/03/21 10:11:15;;;;;;;15.45;9.07;;;;;;;;;;5119757;28;19912;-81
2021/03/21 10:13:43;;;;;;;17.75;8.80;;;;;;;;;;5107656;28;20023;-81
2021/03/21 10:16:09;;;;;;;16.77;8.52;;;;;;;;;;5114273;28;20502;-81
2021/03/21 10:18:44;;;;;;;19.33;10.38;;;;;;;;;;5122650;28;20027;-81
2021/03/21 10:21:15;;;;;;;17.45;8.98;;;;;;;;;;5106600;28;20024;-81
2021/03/21 10:23:50;;;;;;;14.40;8.85;;;;;;;;;;5099453;28;20016;-81
2021/03/21 10:26:17;;;;;;;18.88;10.75;;;;;;;;;;5115534;28;20052;-81
2021/03/21 10:28:47;;;;;;;19.52;9.82;;;;;;;;;;5106811;28;20054;-81
2021/03/21 10:31:16;;;;;;;23.60;11.48;;;;;;;;;;5109307;28;20476;-81
2021/03/21 10:33:43;;;;;;;16.88;8.75;;;;;;;;;;5112968;28;20070;-81
2021/03/21 10:36:08;;;;;;;17.88;9.60;;;;;;;;;;5126839;27;20395;-81
2021/03/21 10:38:47;;;;;;;25.77;13.65;;;;;;;;;;5116604;28;20027;-81
2021/03/21 10:41:32;;;;;;;17.00;9.25;;;;;;;;;;5102276;28;20032;-80
2021/03/21 10:43:59;;;;;;;12.77;7.45;;;;;;;;;;5111391;28;20059;-81
2021/03/21 10:48:45;;;;;;;13.95;8.00;;;;;;;;;;5103530;27;20360;-81
2021/03/21 10:51:13;;;;;;;13.93;7.78;;;;;;;;;;5091704;28;20527;-81
2021/03/21 10:53:41;;;;;;;18.90;9.93;;;;;;;;;;5088892;28;20051;-81
2021/03/21 10:56:09;;;;;;;14.52;7.82;;;;;;;;;;5087689;28;20051;-81
2021/03/21 10:58:38;;;;;;;26.10;13.07;;;;;;;;;;5087655;28;20028;-81
2021/03/21 11:01:20;;;;;;;14.43;9.18;;;;;;;;;;5088002;28;20421;-81
2021/03/21 11:03:48;;;;;;;16.58;7.95;;;;;;;;;;5087918;28;20444;-81
2021/03/21 11:06:15;;;;;;;19.45;9.70;;;;;;;;;;5087211;28;20160;-81
2021/03/21 11:11:14;;;;;;;15.82;8.50;;;;;;;;;;5160636;27;20399;-81
2021/03/21 11:13:40;;;;;;;20.37;10.13;;;;;;;;;;5156399;27;20087;-80
2021/03/21 11:16:13;;;;;;;20.52;10.63;;;;;;;;;;5162177;27;20022;-81
2021/03/21 11:18:39;;;;;;;17.30;8.80;;;;;;;;;;5154808;27;20029;-81
2021/03/21 11:21:07;;;;;;;11.98;7.68;;;;;;;;;;5151725;27;20027;-81
2021/03/21 11:23:41;;;;;;;11.43;6.93;;;;;;;;;;5146081;27;20071;-81
2021/03/21 11:26:19;;;;;;;13.38;7.28;;;;;;;;;;5152864;27;20027;-81
2021/03/21 11:28:45;;;;;;;17.42;8.95;;;;;;;;;;5149499;27;20353;-81
2021/03/21 11:31:15;;;;;;;14.48;8.63;;;;;;;;;;5157315;27;20042;-81
2021/03/21 11:33:43;;;;;;;13.20;8.13;;;;;;;;;;5150918;27;20015;-81
2021/03/21 11:36:08;;;;;;;14.93;9.88;;;;;;;;;;5159943;27;20026;-81
2021/03/21 11:38:36;;;;;;;12.20;7.75;;;;;;;;;;5150965;27;20098;-81
2021/03/21 11:41:02;;;;;;;16.08;8.25;;;;;;;;;;5157630;27;20058;-81
2021/03/21 11:43:29;;;;;;;15.32;9.63;;;;;;;;;;5158173;27;20025;-81
2021/03/21 11:46:09;;;;;;;16.58;9.13;;;;;;;;;;5147773;27;20039;-81
2021/03/21 11:48:36;;;;;;;17.48;10.18;;;;;;;;;;5153286;27;20109;-81
2021/03/21 11:51:02;;;;;;;14.93;8.43;;;;;;;;;;5152164;27;20026;-81
2021/03/21 11:53:36;;;;;;;11.20;7.72;;;;;;;;;;5148585;27;20830;-81
2021/03/21 11:58:35;;;;;;;22.95;15.15;;;;;;;;;;5116745;27;20355;-81
2021/03/21 12:03:42;;;;;;;16.35;10.30;;;;;;;;;;5082018;28;20055;-80
2021/03/21 12:06:31;;;;;;;14.43;7.93;;;;;;;;;;5083489;28;20404;-80
2021/03/21 12:08:58;;;;;;;11.90;7.72;;;;;;;;;;5074799;28;20017;-80
2021/03/21 12:11:24;;;;;;;12.85;7.28;;;;;;;;;;5084858;28;20012;-81
2021/03/21 12:13:50;;;;;;;9.98;6.55;;;;;;;;;;5099817;28;20072;-81
2021/03/21 12:16:49;;;;;;;10.93;7.10;;;;;;;;;;5078769;28;20051;-81
2021/03/21 12:19:29;;;;;;;10.82;7.00;;;;;;;;;;5033463;28;20040;-83
2021/03/21 12:21:56;;;;;;;12.35;6.85;;;;;;;;;;5095837;28;20039;-82
2021/03/21 12:24:23;;;;;;;11.55;6.63;;;;;;;;;;5088921;28;20103;-83
2021/03/21 12:26:51;;;;;;;11.05;7.00;;;;;;;;;;5091995;28;20052;-82
2021/03/21 12:29:38;;;;;;;12.63;6.85;;;;;;;;;;5093454;28;20031;-83
2021/03/21 12:32:35;;;;;;;10.75;6.95;;;;;;;;;;5075452;28;20033;-84
2021/03/21 12:35:01;;;;;;;11.50;6.63;;;;;;;;;;5054356;28;20040;-84
2021/03/21 12:37:29;;;;;;;12.20;7.43;;;;;;;;;;5092433;28;20070;-82
2021/03/21 12:40:15;;;;;;;14.13;7.28;;;;;;;;;;5087449;28;20054;-81
2021/03/21 12:42:43;;;;;;;12.90;7.65;;;;;;;;;;5074159;28;20377;-78
2021/03/21 12:45:08;;;;;;;12.50;7.38;;;;;;;;;;5102247;28;20024;-83
2021/03/21 12:47:36;;;;;;;14.98;9.25;;;;;;;;;;5095358;28;20027;-80
2021/03/21 12:50:20;;;;;;;15.82;9.85;;;;;;;;;;5085514;28;20117;-81
2021/03/21 12:52:46;;;;;;;14.07;8.65;;;;;;;;;;5096887;28;20020;-81
2021/03/21 12:55:16;;;;;;;16.55;10.32;;;;;;;;;;5089444;28;20540;-83
2021/03/21 12:57:41;;;;;;;11.80;7.30;;;;;;;;;;5076289;28;20480;-83
2021/03/21 13:00:08;;;;;;;14.93;7.63;;;;;;;;;;5099181;28;20106;-83
2021/03/21 13:02:35;;;;;;;13.27;7.05;;;;;;;;;;5092235;28;20658;-83
2021/03/21 13:05:03;;;;;;;11.80;7.28;;;;;;;;;;5091900;28;20051;-82
2021/03/21 13:07:29;;;;;;;11.70;6.63;;;;;;;;;;5099020;28;20020;-83
2021/03/21 13:09:55;;;;;;;12.05;5.85;;;;;;;;;;5084387;28;20024;-83
2021/03/21 13:12:22;;;;;;;7.10;3.85;;;;;;;;;;5088006;28;20499;-82
2021/03/21 13:14:48;;;;;;;11.65;5.18;;;;;;;;;;5070259;28;20441;-83
2021/03/21 13:17:14;;;;;;;11.32;5.80;;;;;;;;;;5062678;28;20028;-82
2021/03/21 13:19:40;;;;;;;12.32;4.65;;;;;;;;;;5086044;28;20057;-82
2021/03/21 13:22:06;;;;;;;5.80;3.17;;;;;;;;;;5075940;28;20047;-82
2021/03/21 13:24:32;;;;;;;8.73;3.92;;;;;;;;;;5083311;28;20078;-84
2021/03/21 13:26:58;;;;;;;9.73;5.03;;;;;;;;;;5081675;28;20028;-85
2021/03/21 13:29:24;;;;;;;18.23;6.57;;;;;;;;;;5078895;28;20516;-85
2021/03/21 13:31:50;;;;;;;9.60;4.20;;;;;;;;;;5082824;28;20024;-84
2021/03/21 13:36:34;;;;;;;14.82;5.43;;;;;;;;;;5094537;27;20373;-84
2021/03/21 13:39:00;;;;;;;4.97;2.60;;;;;;;;;;5090152;28;20028;-85
2021/03/21 13:41:25;;;;;;;4.78;2.80;;;;;;;;;;5096788;28;20026;-84
2021/03/21 13:43:51;;;;;;;6.00;2.92;;;;;;;;;;5091793;28;20012;-83
2021/03/21 13:46:17;;;;;;;6.28;3.22;;;;;;;;;;5098116;28;20039;-82
2021/03/21 13:48:43;;;;;;;8.27;3.95;;;;;;;;;;5098842;28;20411;-81
2021/03/21 13:51:08;;;;;;;6.95;3.42;;;;;;;;;;5102687;28;20110;-81
2021/03/21 13:53:34;;;;;;;5.80;3.33;;;;;;;;;;5100298;28;20024;-81
2021/03/21 13:56:02;;;;;;;6.15;3.85;;;;;;;;;;5098569;28;20027;-82
2021/03/21 13:58:28;;;;;;;20.70;4.93;;;;;;;;;;5099303;28;20024;-83
2021/03/21 14:00:53;;;;;;;8.32;4.10;;;;;;;;;;5097860;28;20107;-81
2021/03/21 14:03:20;;;;;;;19.85;9.18;;;;;;;;;;5107019;28;20023;-82
2021/03/21 14:05:48;;;;;;;10.15;5.07;;;;;;;;;;5101471;28;20360;-81
2021/03/21 14:08:13;;;;;;;7.03;3.35;;;;;;;;;;5088123;28;20024;-81
2021/03/21 14:10:39;;;;;;;6.53;2.85;;;;;;;;;;5097278;28;20039;-82
2021/03/21 14:15:27;;;;;;;6.28;3.17;;;;;;;;;;5069756;28;20439;-81
2021/03/21 14:17:53;;;;;;;6.57;3.45;;;;;;;;;;5077672;28;20419;-81
2021/03/21 14:20:25;;;;;;;5.82;2.95;;;;;;;;;;5067696;28;20037;-81
2021/03/21 14:22:50;;;;;;;6.93;3.35;;;;;;;;;;5052937;28;20075;-81
2021/03/21 14:25:17;;;;;;;7.68;3.97;;;;;;;;;;5062017;28;20100;-82
2021/03/21 14:27:42;;;;;;;5.95;3.50;;;;;;;;;;5055995;28;20354;-84
2021/03/21 14:30:09;;;;;;;14.02;3.92;;;;;;;;;;5043211;28;20063;-81
2021/03/21 14:32:35;;;;;;;5.63;3.00;;;;;;;;;;5038786;28;20528;-82
2021/03/21 14:35:00;;;;;;;7.28;3.70;;;;;;;;;;5066347;28;20024;-81
2021/03/21 14:37:26;;;;;;;8.38;4.38;;;;;;;;;;5057287;28;20036;-81
2021/03/21 14:39:52;;;;;;;4.88;2.60;;;;;;;;;;5057596;28;20468;-81
2021/03/21 14:42:18;;;;;;;5.57;3.50;;;;;;;;;;5064049;28;20116;-82
2021/03/21 14:44:44;;;;;;;6.72;3.10;;;;;;;;;;5064033;28;20491;-82
2021/03/21 14:47:10;;;;;;;5.05;3.03;;;;;;;;;;5061563;28;20033;-81
2021/03/21 14:49:35;;;;;;;5.22;2.65;;;;;;;;;;5063127;28;20056;-82
2021/03/21 14:52:01;;;;;;;5.93;2.80;;;;;;;;;;5061032;28;20107;-81
2021/03/21 14:56:45;;;;;;;10.20;3.85;;;;;;;;;;5101693;27;20856;-81
2021/03/21 14:59:10;;;;;;;7.20;3.13;;;;;;;;;;5092591;28;20027;-80
2021/03/21 15:01:36;;;;;;;5.95;3.65;;;;;;;;;;5084815;28;20144;-82
2021/03/21 15:04:02;;;;;;;5.10;3.00;;;;;;;;;;5068898;28;20417;-79
2021/03/21 15:06:27;;;;;;;7.63;4.13;;;;;;;;;;5071097;28;20102;-80
2021/03/21 15:08:53;;;;;;;6.95;3.00;;;;;;;;;;5067230;28;20021;-79
2021/03/21 15:11:21;;;;;;;7.13;3.70;;;;;;;;;;5069885;28;20108;-80
2021/03/21 15:13:47;;;;;;;4.85;2.45;;;;;;;;;;5072202;28;20087;-80
2021/03/21 15:16:13;;;;;;;5.00;2.60;;;;;;;;;;5070217;28;20112;-80
2021/03/21 15:18:41;;;;;;;3.88;2.03;;;;;;;;;;5069647;28;20086;-80
2021/03/21 15:21:07;;;;;;;5.88;3.35;;;;;;;;;;5068890;28;20017;-79
2021/03/21 15:23:35;;;;;;;5.65;2.15;;;;;;;;;;5065950;28;20077;-80
2021/03/21 15:26:01;;;;;;;4.80;2.28;;;;;;;;;;5063252;28;20682;-80
2021/03/21 15:28:35;;;;;;;4.88;2.25;;;;;;;;;;5063400;28;20503;-83
2021/03/21 15:31:01;;;;;;;3.10;1.75;;;;;;;;;;5065412;28;20102;-79
2021/03/21 15:33:30;;;;;;;2.78;1.73;;;;;;;;;;5065001;28;20025;-80
2021/03/21 15:35:56;;;;;;;3.72;2.20;;;;;;;;;;5069120;28;20052;-80
2021/03/21 15:38:21;;;;;;;4.07;2.25;;;;;;;;;;5067637;28;20029;-81
2021/03/21 15:40:48;;;;;;;6.68;2.45;;;;;;;;;;5069563;28;20035;-81
2021/03/21 15:43:14;;;;;;;10.00;3.17;;;;;;;;;;5077477;28;20106;-81
2021/03/21 15:45:41;;;;;;;6.55;2.50;;;;;;;;;;5075713;28;20032;-81
2021/03/21 15:48:07;;;;;;;4.10;2.38;;;;;;;;;;5079215;28;20111;-80
2021/03/21 15:50:33;;;;;;;5.60;2.90;;;;;;;;;;5074252;28;20024;-79
2021/03/21 15:53:00;;;;;;;9.65;3.42;;;;;;;;;;5080328;28;20028;-83
2021/03/21 15:55:26;;;;;;;4.35;2.20;;;;;;;;;;5067691;28;20075;-81
2021/03/21 15:57:52;;;;;;;9.82;2.83;;;;;;;;;;5089939;28;20120;-83
2021/03/21 16:00:20;;;;;;;7.28;2.90;;;;;;;;;;5085566;28;20035;-81
2021/03/21 16:02:45;;;;;;;20.20;8.00;;;;;;;;;;5078616;28;20039;-80
2021/03/21 16:05:11;;;;;;;39.60;15.63;;;;;;;;;;5075106;28;20056;-81
2021/03/21 16:07:37;;;;;;;18.58;7.15;;;;;;;;;;5069485;28;20054;-80
2021/03/21 16:10:04;;;;;;;15.20;7.47;;;;;;;;;;5057623;28;20047;-78
2021/03/21 16:12:29;;;;;;;12.82;6.35;;;;;;;;;;5063517;28;20051;-79
2021/03/21 16:14:55;;;;;;;8.82;4.72;;;;;;;;;;5055129;28;20035;-79
2021/03/21 16:17:21;;;;;;;10.73;5.50;;;;;;;;;;5056418;28;20031;-77
2021/03/21 16:19:46;;;;;;;8.00;4.35;;;;;;;;;;5058869;28;20017;-80
2021/03/21 16:22:12;;;;;;;6.18;2.50;;;;;;;;;;5059755;28;20098;-79
2021/03/21 16:26:56;;;;;;;4.75;2.10;;;;;;;;;;5108993;27;20393;-78
2021/03/21 16:29:22;;;;;;;5.43;2.42;;;;;;;;;;5102983;28;20046;-78
2021/03/21 16:31:48;;;;;;;3.70;1.70;;;;;;;;;;5097720;28;20098;-79
2021/03/21 16:34:15;;;;;;;8.32;3.00;;;;;;;;;;5104656;28;20020;-79
2021/03/21 16:36:41;;;;;;;6.82;2.33;;;;;;;;;;5098516;28;20052;-78
2021/03/21 16:39:07;;;;;;;7.72;2.53;;;;;;;;;;5099345;28;20366;-80
2021/03/21 16:41:32;;;;;;;8.88;3.65;;;;;;;;;;5103357;28;20039;-80
2021/03/21 16:43:58;;;;;;;6.43;2.72;;;;;;;;;;5099707;28;20028;-78
2021/03/21 16:46:24;;;;;;;4.60;2.38;;;;;;;;;;5103329;28;20020;-79
2021/03/21 16:48:50;;;;;;;10.98;3.55;;;;;;;;;;5096432;28;20028;-78
2021/03/21 16:51:18;;;;;;;8.57;3.03;;;;;;;;;;5105789;28;20012;-78
2021/03/21 16:53:45;;;;;;;64.85;27.23;;;;;;;;;;5095561;28;20048;-78
2021/03/21 16:56:11;;;;;;;13.23;7.15;;;;;;;;;;5086151;28;20086;-79
2021/03/21 16:58:37;;;;;;;15.02;7.40;;;;;;;;;;5091870;28;20464;-79
2021/03/21 17:03:23;;;;;;;10.73;3.70;;;;;;;;;;5091647;27;20945;-79
2021/03/21 17:05:49;;;;;;;7.75;3.95;;;;;;;;;;5071623;28;20128;-80
2021/03/21 17:08:15;;;;;;;8.77;4.45;;;;;;;;;;5073605;28;20021;-79
2021/03/21 17:10:43;;;;;;;9.82;3.75;;;;;;;;;;5070697;28;20028;-78
2021/03/21 17:13:10;;;;;;;11.30;4.25;;;;;;;;;;5072174;28;20033;-78
2021/03/21 17:15:38;;;;;;;10.52;4.93;;;;;;;;;;5072430;28;20032;-79
2021/03/21 17:18:04;;;;;;;13.63;4.10;;;;;;;;;;5066551;28;20105;-79
2021/03/21 17:20:30;;;;;;;7.72;2.85;;;;;;;;;;5076232;28;20043;-81
2021/03/21 17:22:56;;;;;;;11.32;4.95;;;;;;;;;;5077061;28;20020;-78
2021/03/21 17:25:30;;;;;;;17.23;6.88;;;;;;;;;;5074938;28;20418;-79
2021/03/21 17:27:55;;;;;;;11.05;6.20;;;;;;;;;;5069005;28;20029;-78
2021/03/21 17:30:24;;;;;;;7.63;4.43;;;;;;;;;;5068439;28;20116;-78
2021/03/21 17:32:49;;;;;;;12.27;4.68;;;;;;;;;;5070664;28;20060;-79
2021/03/21 17:35:15;;;;;;;6.85;2.67;;;;;;;;;;5071974;28;20055;-80
2021/03/21 17:37:41;;;;;;;8.68;3.63;;;;;;;;;;5071424;28;20031;-78
2021/03/21 17:40:07;;;;;;;11.68;3.05;;;;;;;;;;5071571;28;20028;-80
2021/03/21 17:42:33;;;;;;;7.95;2.88;;;;;;;;;;5073441;28;20047;-80
2021/03/21 17:44:59;;;;;;;9.02;2.92;;;;;;;;;;5070953;28;20040;-78
2021/03/21 17:47:24;;;;;;;10.38;2.85;;;;;;;;;;5074514;28;20086;-79
2021/03/21 17:49:50;;;;;;;5.93;3.10;;;;;;;;;;5066057;28;20111;-78
2021/03/21 17:52:16;;;;;;;11.32;4.78;;;;;;;;;;5071710;28;20043;-78
2021/03/21 17:54:44;;;;;;;11.68;4.15;;;;;;;;;;5070353;28;20071;-78
2021/03/21 17:57:10;;;;;;;11.50;3.67;;;;;;;;;;5070136;28;20388;-79
2021/03/21 17:59:39;;;;;;;12.70;3.65;;;;;;;;;;5076814;28;20074;-78
2021/03/21 18:04:32;;;;;;;8.65;3.25;;;;;;;;;;5066562;28;20060;-81
2021/03/21 18:06:58;;;;;;;10.02;3.83;;;;;;;;;;5051833;28;20456;-80
2021/03/21 18:09:24;;;;;;;10.32;3.40;;;;;;;;;;5051267;28;20112;-81
2021/03/21 18:11:49;;;;;;;7.97;3.42;;;;;;;;;;5070844;28;20028;-80
2021/03/21 18:14:15;;;;;;;9.25;2.85;;;;;;;;;;5060632;28;20036;-80
2021/03/21 18:16:41;;;;;;;10.73;5.30;;;;;;;;;;5075177;28;20021;-79
2021/03/21 18:19:06;;;;;;;9.68;3.38;;;;;;;;;;5074364;28;20252;-78
2021/03/21 18:21:32;;;;;;;9.68;4.35;;;;;;;;;;5075452;28;20099;-79
2021/03/21 18:23:58;;;;;;;8.13;3.35;;;;;;;;;;5055387;28;20020;-78
2021/03/21 18:26:24;;;;;;;8.00;3.30;;;;;;;;;;5074935;28;20012;-78
2021/03/21 18:28:49;;;;;;;8.05;4.13;;;;;;;;;;5075781;28;20115;-79
2021/03/21 18:31:19;;;;;;;24.00;7.90;;;;;;;;;;5075220;28;20043;-78
2021/03/21 18:33:45;;;;;;;20.27;8.00;;;;;;;;;;5055753;28;20017;-78
2021/03/21 18:36:11;;;;;;;16.65;6.05;;;;;;;;;;5056111;28;20039;-79
2021/03/21 18:38:37;;;;;;;11.70;4.30;;;;;;;;;;5075999;28;20023;-79
2021/03/21 18:41:02;;;;;;;10.80;3.38;;;;;;;;;;5060070;28;20025;-77
2021/03/21 18:43:28;;;;;;;16.65;5.00;;;;;;;;;;5075795;28;20021;-78
2021/03/21 18:45:54;;;;;;;12.02;4.60;;;;;;;;;;5072501;28;21119;-78
2021/03/21 18:48:20;;;;;;;13.98;3.70;;;;;;;;;;5077860;28;20488;-79
2021/03/21 18:50:46;;;;;;;14.32;6.22;;;;;;;;;;5056787;28;20087;-79
2021/03/21 18:53:12;;;;;;;18.67;7.20;;;;;;;;;;5057555;28;20025;-79
2021/03/21 18:55:39;;;;;;;19.35;5.72;;;;;;;;;;5057500;28;20416;-78
2021/03/21 18:58:05;;;;;;;11.27;5.57;;;;;;;;;;5073428;28;20028;-77
2021/03/21 19:00:36;;;;;;;16.67;6.47;;;;;;;;;;5073723;28;20016;-79
2021/03/21 19:03:02;;;;;;;14.15;5.75;;;;;;;;;;5071690;28;20024;-79
2021/03/21 19:05:28;;;;;;;14.77;6.15;;;;;;;;;;5071340;28;20385;-79
2021/03/21 19:07:54;;;;;;;17.00;5.57;;;;;;;;;;5071619;28;20059;-78
2021/03/21 19:10:23;;;;;;;9.60;4.65;;;;;;;;;;5054396;28;20070;-78
2021/03/21 19:12:48;;;;;;;16.08;5.15;;;;;;;;;;5071852;28;20021;-79
2021/03/21 19:15:14;;;;;;;16.00;6.57;;;;;;;;;;5070519;28;20047;-79
2021/03/21 19:17:40;;;;;;;14.13;4.22;;;;;;;;;;5070991;28;20028;-79
2021/03/21 19:20:07;;;;;;;19.02;6.85;;;;;;;;;;5072989;28;20028;-77
2021/03/21 19:22:32;;;;;;;19.73;12.05;;;;;;;;;;5060731;28;20032;-79
2021/03/21 19:24:58;;;;;;;15.98;7.88;;;;;;;;;;5071999;28;20055;-79
2021/03/21 19:27:24;;;;;;;14.23;5.80;;;;;;;;;;5075001;28;20029;-79
2021/03/21 19:29:49;;;;;;;11.02;4.55;;;;;;;;;;5054566;28;20022;-78
2021/03/21 19:32:15;;;;;;;10.07;3.78;;;;;;;;;;5055241;28;20098;-79
2021/03/21 19:34:41;;;;;;;10.50;3.30;;;;;;;;;;5055954;28;20024;-79
2021/03/21 19:37:07;;;;;;;12.93;4.93;;;;;;;;;;5073382;28;20535;-79
2021/03/21 19:39:33;;;;;;;18.30;9.13;;;;;;;;;;5074328;28;20032;-79
2021/03/21 19:41:59;;;;;;;19.23;6.72;;;;;;;;;;5073130;28;20023;-79
2021/03/21 19:44:26;;;;;;;12.57;5.97;;;;;;;;;;5068071;28;20029;-79
2021/03/21 19:46:52;;;;;;;13.43;7.05;;;;;;;;;;5061040;28;20100;-79
2021/03/21 19:51:36;;;;;;;11.95;5.03;;;;;;;;;;5102637;27;20381;-80
2021/03/21 19:54:02;;;;;;;13.18;4.13;;;;;;;;;;5087011;28;20032;-80
2021/03/21 19:56:28;;;;;;;13.07;4.88;;;;;;;;;;5092679;28;20057;-80
2021/03/21 19:58:53;;;;;;;6.22;3.58;;;;;;;;;;5089920;28;20048;-80
2021/03/21 20:01:19;;;;;;;10.25;3.72;;;;;;;;;;5091059;28;20558;-80
2021/03/21 20:03:46;;;;;;;8.10;2.85;;;;;;;;;;5094198;28;20452;-80
2021/03/21 20:06:11;;;;;;;6.35;3.00;;;;;;;;;;5091528;28;20016;-80
2021/03/21 20:08:37;;;;;;;10.63;3.47;;;;;;;;;;5094467;28;20035;-81
2021/03/21 20:11:03;;;;;;;8.25;4.13;;;;;;;;;;5082672;28;20042;-79
2021/03/21 20:13:30;;;;;;;13.77;4.45;;;;;;;;;;5092311;28;20047;-79
2021/03/21 20:15:56;;;;;;;11.82;4.32;;;;;;;;;;5096164;28;20027;-80
2021/03/21 20:18:22;;;;;;;19.23;4.65;;;;;;;;;;5100834;28;20024;-80
2021/03/21 20:20:48;;;;;;;13.02;4.25;;;;;;;;;;5085479;28;20441;-80
2021/03/21 20:23:14;;;;;;;13.65;5.03;;;;;;;;;;5087961;28;20064;-80
2021/03/21 20:25:43;;;;;;;14.55;3.85;;;;;;;;;;5091787;28;20067;-81
2021/03/21 20:28:10;;;;;;;10.98;4.53;;;;;;;;;;5097298;28;20131;-80
2021/03/21 20:30:36;;;;;;;13.77;4.78;;;;;;;;;;5091659;28;20035;-81
2021/03/21 20:33:02;;;;;;;15.32;4.53;;;;;;;;;;5095349;28;20565;-79
2021/03/21 20:35:29;;;;;;;17.50;5.43;;;;;;;;;;5094450;28;20077;-80
2021/03/21 20:37:56;;;;;;;10.38;4.55;;;;;;;;;;5098995;28;20434;-81
2021/03/21 20:40:23;;;;;;;10.50;3.50;;;;;;;;;;5085407;28;20058;-79
2021/03/21 20:42:50;;;;;;;15.05;5.47;;;;;;;;;;5097161;28;20028;-79
2021/03/21 20:45:15;;;;;;;11.75;3.83;;;;;;;;;;5088921;28;20024;-80
2021/03/21 20:47:41;;;;;;;13.38;5.30;;;;;;;;;;5086283;28;20104;-80
2021/03/21 20:50:08;;;;;;;13.60;3.80;;;;;;;;;;5088106;28;20055;-80
2021/03/21 20:52:33;;;;;;;15.73;4.28;;;;;;;;;;5091056;28;20116;-79
2021/03/21 20:55:00;;;;;;;10.77;3.72;;;;;;;;;;5093404;28;20031;-80
2021/03/21 20:57:26;;;;;;;16.48;5.47;;;;;;;;;;5085855;28;19927;-80
2021/03/21 20:59:51;;;;;;;11.70;4.10;;;;;;;;;;5094616;28;20139;-79
2021/03/21 21:02:23;;;;;;;11.40;4.72;;;;;;;;;;5084680;28;20032;-79
2021/03/21 21:04:49;;;;;;;8.90;4.00;;;;;;;;;;5079666;28;20033;-79
2021/03/21 21:07:14;;;;;;;9.73;4.53;;;;;;;;;;5078590;28;20035;-79
2021/03/21 21:09:40;;;;;;;14.52;4.50;;;;;;;;;;5078260;28;20024;-80